createdAt,value
2019-03-09T00:00:42.063Z,100341.87
2019-03-09T00:03:13.240Z,100343.37
2019-03-09T00:05:42.783Z,100336.82
2019-03-09T00:08:12.302Z,100325.52
2019-03-09T00:10:42.934Z,100334.10
2019-03-09T00:13:13.687Z,100321.51
2019-03-09T00:15:43.314Z,100317.24
2019-03-09T00:18:12.857Z,100312.16
2019-03-09T00:20:42.401Z,100304.15
2019-03-09T00:23:30.984Z,100305.14
2019-03-09T00:26:18.281Z,100294.95
2019-03-09T00:28:56.219Z,100283.91
2019-03-09T00:31:31.026Z,100278.25
2019-03-09T00:34:00.639Z,100267.70
2019-03-09T00:36:30.261Z,100245.20
2019-03-09T00:38:59.819Z,100186.31
2019-03-09T00:41:29.833Z,100244.35
2019-03-09T00:43:59.434Z,100244.76
2019-03-09T00:46:28.962Z,100239.27
2019-03-09T00:48:58.500Z,100229.04
2019-03-09T00:51:28.032Z,100231.74
2019-03-09T00:53:57.739Z,100220.09
2019-03-09T00:56:27.331Z,100230.47
2019-03-09T00:58:56.847Z,100215.66
2019-03-09T01:01:26.387Z,100218.81
2019-03-09T01:03:55.907Z,100225.02
2019-03-09T01:06:25.499Z,100217.91
2019-03-09T01:08:55.022Z,100214.45
2019-03-09T01:11:24.540Z,100219.06
2019-03-09T01:13:55.085Z,100208.47
2019-03-09T01:16:24.615Z,100203.87
2019-03-09T01:18:54.131Z,100199.15
2019-03-09T01:21:23.665Z,100190.16
2019-03-09T01:23:53.245Z,100190.16
2019-03-09T01:26:22.776Z,100181.41
2019-03-09T01:28:52.287Z,100170.62
2019-03-09T01:31:21.814Z,100159.95
2019-03-09T01:33:51.334Z,100149.66
2019-03-09T01:36:20.848Z,100148.87
2019-03-09T01:38:50.367Z,100137.18
2019-03-09T01:41:19.952Z,100127.38
2019-03-09T01:43:49.467Z,100114.17
2019-03-09T01:46:18.991Z,100107.39
2019-03-09T01:48:48.490Z,100099.66
2019-03-09T01:51:18.017Z,100088.95
2019-03-09T01:53:47.538Z,100085.78
2019-03-09T01:56:17.119Z,100076.54
2019-03-09T01:58:46.624Z,100078.30
2019-03-09T02:01:16.161Z,100076.27
2019-03-09T02:03:45.671Z,100062.09
2019-03-09T02:06:15.203Z,100060.33
2019-03-09T02:08:44.745Z,100047.81
2019-03-09T02:11:14.265Z,100039.88
2019-03-09T02:13:43.796Z,100036.41
2019-03-09T02:16:13.321Z,100020.22
2019-03-09T02:18:42.855Z,100012.96
2019-03-09T02:21:12.378Z,100017.12
2019-03-09T02:23:41.921Z,100001.86
2019-03-09T02:26:11.462Z,99992.03
2019-03-09T02:28:41.001Z,100002.61
2019-03-09T02:31:10.523Z,99985.50
2019-03-09T02:33:40.061Z,99981.23
2019-03-09T02:36:09.585Z,99980.45
2019-03-09T02:38:50.205Z,99969.45
2019-03-09T02:41:19.724Z,99971.61
2019-03-09T02:43:49.242Z,99969.45
2019-03-09T02:46:18.750Z,99952.12
2019-03-09T02:48:48.293Z,99946.91
2019-03-09T02:51:17.815Z,99954.98
2019-03-09T02:53:47.352Z,99948.63
2019-03-09T02:56:16.883Z,99942.20
2019-03-09T02:58:46.402Z,99940.00
2019-03-09T03:01:31.651Z,99935.94
2019-03-09T03:04:01.172Z,99931.33
2019-03-09T03:06:30.681Z,99927.28
2019-03-09T03:09:00.209Z,99911.91
2019-03-09T03:11:29.724Z,99925.80
2019-03-09T03:13:59.237Z,99922.20
2019-03-09T03:16:28.735Z,99910.31
2019-03-09T03:18:58.263Z,99906.94
2019-03-09T03:21:27.777Z,99911.55
2019-03-09T03:23:57.295Z,99901.97
2019-03-09T03:26:26.807Z,99904.23
2019-03-09T03:28:56.330Z,99899.53
2019-03-09T03:31:25.866Z,99902.86
2019-03-09T03:33:55.384Z,99911.86
2019-03-09T03:36:24.896Z,99900.11
2019-03-09T03:38:54.411Z,99889.12
2019-03-09T03:41:23.927Z,99885.06
2019-03-09T03:43:53.434Z,99877.78
2019-03-09T03:46:22.949Z,99872.67
2019-03-09T03:48:52.466Z,99868.58
2019-03-09T03:51:22.243Z,99859.72
2019-03-09T03:53:51.758Z,99861.98
2019-03-09T03:56:21.254Z,99849.55
2019-03-09T03:58:50.758Z,99859.69
2019-03-09T04:01:20.356Z,99854.91
2019-03-09T04:03:49.871Z,99844.44
2019-03-09T04:06:19.379Z,99841.52
2019-03-09T04:08:48.897Z,99846.73
2019-03-09T04:11:18.786Z,99844.64
2019-03-09T04:13:48.382Z,99846.29
2019-03-09T04:16:17.894Z,99842.48
2019-03-09T04:18:47.481Z,99847.53
2019-03-09T04:21:17.053Z,99846.29
2019-03-09T04:23:46.577Z,99832.05
2019-03-09T09:36:20.845Z,100157.56
2019-03-09T09:38:50.488Z,100160.02
2019-03-09T09:41:20.041Z,100159.70
2019-03-09T09:43:49.656Z,100154.60
2019-03-09T09:46:19.214Z,100148.41
2019-03-09T09:48:48.770Z,100147.73
2019-03-09T09:51:18.387Z,100147.48
2019-03-09T09:53:47.920Z,100141.17
2019-03-09T09:56:17.494Z,100146.44
2019-03-09T09:58:47.029Z,100142.83
2019-03-09T10:01:16.573Z,100142.15
2019-03-09T10:03:48.245Z,100142.23
2019-03-09T10:06:18.471Z,100138.28
2019-03-09T10:08:48.167Z,100128.00
2019-03-09T10:11:17.738Z,100130.22
2019-03-09T10:13:47.275Z,100131.58
2019-03-09T10:16:16.866Z,100122.31
2019-03-09T10:18:48.414Z,100117.61
2019-03-09T10:21:17.977Z,100114.60
2019-03-09T10:23:48.465Z,100119.63
2019-03-09T10:26:20.072Z,100123.98
2019-03-09T10:28:49.611Z,100130.34
2019-03-09T10:31:19.160Z,100131.42
2019-03-09T10:33:48.795Z,100144.91
2019-03-09T10:36:18.348Z,100132.25
2019-03-09T10:38:47.940Z,100142.99
2019-03-09T10:41:17.468Z,100133.11
2019-03-09T10:43:47.082Z,100137.09
2019-03-09T10:46:16.623Z,100129.06
2019-03-09T10:48:46.172Z,100134.27
2019-03-09T10:51:15.718Z,100133.90
2019-03-09T10:53:45.300Z,100138.64
2019-03-09T10:56:14.826Z,100133.53
2019-03-09T10:58:44.361Z,100137.39
2019-03-09T11:01:13.893Z,100118.17
2019-03-09T11:03:43.409Z,100110.71
2019-03-09T11:06:13.118Z,100103.06
2019-03-09T11:08:42.660Z,100118.97
2019-03-09T11:11:12.221Z,100123.29
2019-03-09T11:13:51.355Z,100126.70
2019-03-09T11:16:13.288Z,100113.77
2019-03-09T11:18:42.819Z,100098.94
2019-03-09T11:21:12.366Z,100101.41
2019-03-09T11:23:42.019Z,100106.56
2019-03-09T11:26:11.531Z,100109.08
2019-03-09T11:28:41.071Z,100113.27
2019-03-09T11:31:10.635Z,100122.73
2019-03-09T11:33:40.194Z,100104.03
2019-03-09T11:36:09.945Z,100106.62
2019-03-09T11:38:39.532Z,100060.09
2019-03-09T11:41:18.782Z,100090.42
2019-03-09T11:43:40.324Z,100065.80
2019-03-09T11:46:09.851Z,100068.35
2019-03-09T11:48:39.389Z,100061.95
2019-03-09T11:51:09.255Z,100070.44
2019-03-09T11:53:38.791Z,100062.71
2019-03-09T11:56:09.290Z,100060.63
2019-03-09T11:58:38.904Z,100058.95
2019-03-09T12:01:08.427Z,100042.73
2019-03-09T12:03:37.989Z,100055.54
2019-03-09T12:06:07.539Z,100041.84
2019-03-09T12:08:38.091Z,100048.27
2019-03-09T12:11:07.625Z,100057.25
2019-03-09T12:13:37.488Z,100052.53
2019-03-09T12:16:07.061Z,100058.08
2019-03-09T12:18:36.607Z,100058.84
2019-03-09T12:21:06.145Z,100041.87
2019-03-09T12:23:35.679Z,100044.02
2019-03-09T12:26:05.204Z,100054.23
2019-03-09T12:28:34.746Z,100037.62
2019-03-09T12:31:04.303Z,100028.66
2019-03-09T12:33:33.862Z,100025.61
2019-03-09T12:36:03.417Z,100025.21
2019-03-09T12:38:32.943Z,100034.20
2019-03-09T12:41:02.482Z,100019.67
2019-03-09T12:43:32.021Z,100022.23
2019-03-09T12:46:01.613Z,100024.38
2019-03-09T12:48:31.144Z,100003.89
2019-03-09T12:51:00.688Z,99992.38
2019-03-09T12:53:30.246Z,99980.84
2019-03-09T12:55:59.764Z,99964.19
2019-03-09T12:58:29.296Z,99967.59
2019-03-09T13:00:58.846Z,99957.39
2019-03-09T13:03:28.649Z,99950.14
2019-03-09T13:05:58.166Z,99933.50
2019-03-09T13:08:27.713Z,99945.89
2019-03-09T13:10:57.220Z,99934.38
2019-03-09T13:13:26.744Z,99948.45
2019-03-09T13:15:56.279Z,99937.78
2019-03-09T13:18:25.808Z,99974.77
2019-03-09T13:20:56.292Z,99993.11
2019-03-09T13:23:25.834Z,100007.60
2019-03-09T13:25:55.362Z,99988.48
2019-03-09T13:28:24.894Z,100001.54
2019-03-09T13:30:54.426Z,99986.01
2019-03-09T13:33:23.970Z,99981.75
2019-03-09T13:35:53.511Z,99982.38
2019-03-09T13:38:23.056Z,99970.53
2019-03-09T13:40:52.629Z,99969.41
2019-03-09T13:43:22.185Z,99977.01
2019-03-09T13:45:51.740Z,99962.26
2019-03-09T13:48:21.288Z,99956.34
2019-03-09T13:50:50.806Z,99935.39
2019-03-09T13:53:20.351Z,99930.67
2019-03-09T13:55:52.046Z,99925.08
2019-03-09T13:58:21.153Z,99913.07
2019-03-09T14:00:50.814Z,99900.84
2019-03-09T14:03:20.507Z,99862.50
2019-03-09T14:05:50.023Z,99889.67
2019-03-09T14:08:19.561Z,99867.48
2019-03-09T14:10:49.093Z,99853.53
2019-03-09T14:13:18.700Z,99855.73
2019-03-09T14:15:48.213Z,99850.66
2019-03-09T14:18:17.761Z,99856.55
2019-03-09T14:20:48.478Z,99820.86
2019-03-09T14:23:18.110Z,99819.96
2019-03-09T14:25:47.657Z,99810.55
2019-03-09T14:28:17.252Z,99793.89
2019-03-09T14:30:46.873Z,99785.00
2019-03-09T14:33:16.490Z,99768.41
2019-03-09T14:35:46.089Z,99755.63
2019-03-09T14:38:15.606Z,99743.30
2019-03-09T14:40:45.256Z,99735.70
2019-03-09T14:43:14.782Z,99718.69
2019-03-09T14:45:44.501Z,99707.20
2019-03-09T14:48:14.319Z,99688.03
2019-03-09T14:50:44.132Z,99703.33
2019-03-09T14:53:13.647Z,99714.39
2019-03-09T14:55:43.265Z,99763.03
2019-03-09T14:58:12.812Z,99759.17
2019-03-09T15:00:43.106Z,99780.34
2019-03-09T15:03:12.638Z,99779.52
2019-03-09T15:05:42.214Z,99787.33
2019-03-09T15:08:11.812Z,99769.28
2019-03-09T15:10:41.359Z,99765.39
2019-03-09T15:13:10.881Z,99760.79
2019-03-09T15:15:40.554Z,99744.36
2019-03-09T15:18:10.199Z,99740.57
2019-03-09T15:20:39.724Z,99716.86
2019-03-09T15:23:09.316Z,99721.70
2019-03-09T15:25:38.851Z,99718.19
2019-03-09T15:28:08.368Z,99727.48
2019-03-09T15:30:38.790Z,99739.34
2019-03-09T15:33:08.365Z,99678.06
2019-03-09T15:35:38.089Z,99731.34
2019-03-09T15:38:07.704Z,99727.95
2019-03-09T15:40:37.419Z,99729.69
2019-03-09T15:43:07.132Z,99728.42
2019-03-09T15:45:36.662Z,99736.81
2019-03-09T15:48:06.196Z,99745.47
2019-03-09T15:50:35.718Z,99732.44
2019-03-09T15:53:05.331Z,99744.92
2019-03-09T15:55:34.864Z,99727.43
2019-03-09T15:58:04.568Z,99716.60
2019-03-09T16:00:35.278Z,99727.45
2019-03-09T16:03:05.539Z,99706.93
2019-03-09T16:05:35.115Z,99704.56
2019-03-09T16:08:04.719Z,99703.29
2019-03-09T16:10:34.253Z,99695.56
2019-03-09T16:13:03.792Z,99701.02
2019-03-09T16:15:33.415Z,99718.33
2019-03-09T16:18:02.965Z,99738.39
2019-03-09T16:20:32.474Z,99759.42
2019-03-09T16:23:01.984Z,99771.91
2019-03-09T16:25:31.520Z,99771.13
2019-03-09T16:28:01.041Z,99790.81
2019-03-09T16:30:30.569Z,99800.50
2019-03-09T16:33:00.070Z,99762.37
2019-03-09T16:35:29.592Z,99743.16
2019-03-09T16:37:59.139Z,99721.21
2019-03-09T16:40:28.671Z,99735.59
2019-03-09T16:42:58.222Z,99752.36
2019-03-09T16:45:27.810Z,99767.95
2019-03-09T16:47:57.386Z,99766.09
2019-03-09T16:50:26.902Z,99763.17
2019-03-09T16:52:56.442Z,99767.22
2019-03-09T16:55:25.984Z,99772.84
2019-03-09T16:57:55.515Z,99781.39
2019-03-09T17:00:25.063Z,99803.41
2019-03-09T17:02:54.672Z,99792.31
2019-03-09T17:05:24.244Z,99801.56
2019-03-09T17:07:53.770Z,99818.66
2019-03-09T17:10:23.323Z,99822.50
2019-03-09T17:12:52.851Z,99838.47
2019-03-09T17:15:22.444Z,99828.78
2019-03-09T17:17:52.032Z,99862.60
2019-03-09T17:20:21.615Z,99873.52
2019-03-09T17:22:51.199Z,99865.83
2019-03-09T17:25:21.585Z,99886.81
2019-03-09T17:27:51.101Z,99900.25
2019-03-09T17:30:20.789Z,99908.22
2019-03-09T17:32:50.279Z,99927.01
2019-03-09T17:35:19.778Z,99926.92
2019-03-09T17:37:49.302Z,99944.25
2019-03-09T17:40:18.884Z,99963.22
2019-03-09T17:42:48.538Z,99975.39
2019-03-09T17:45:19.191Z,99972.35
2019-03-09T17:47:48.812Z,100001.81
2019-03-09T17:50:18.333Z,100017.17
2019-03-09T17:52:47.896Z,100028.65
2019-03-09T17:55:17.390Z,100038.94
2019-03-09T17:57:46.924Z,100053.91
2019-03-09T18:00:18.926Z,100072.45
2019-03-09T18:02:48.485Z,100081.25
2019-03-09T18:05:19.735Z,100107.28
2019-03-09T18:07:50.253Z,100124.53
2019-03-09T18:10:41.312Z,100124.53
2019-03-09T18:13:10.836Z,100135.88
2019-03-09T18:15:40.382Z,100137.28
2019-03-09T18:18:09.915Z,100135.24
2019-03-09T18:20:39.461Z,100145.19
2019-03-09T18:23:09.077Z,100164.73
2019-03-09T18:25:38.577Z,100182.39
2019-03-09T18:28:08.113Z,100210.37
2019-03-09T18:30:37.627Z,100225.22
2019-03-09T18:33:07.148Z,100234.34
2019-03-09T18:35:36.671Z,100244.30
2019-03-09T18:38:06.176Z,100257.11
2019-03-09T18:40:35.742Z,100259.39
2019-03-09T18:43:05.848Z,100279.12
2019-03-09T18:45:35.367Z,100292.00
2019-03-09T18:48:04.990Z,100286.22
2019-03-09T18:50:34.516Z,100299.52
2019-03-09T18:53:04.061Z,100317.64
2019-03-09T18:55:34.545Z,100309.13
2019-03-09T18:58:04.081Z,100313.30
2019-03-09T19:00:33.586Z,100327.54
2019-03-09T19:03:03.122Z,100332.61
2019-03-09T19:05:32.651Z,100354.39
2019-03-09T19:08:02.172Z,100346.67
2019-03-09T19:10:31.703Z,100355.28
2019-03-09T19:13:01.244Z,100357.16
2019-03-09T19:15:30.829Z,100366.17
2019-03-09T19:18:00.438Z,100371.85
2019-03-09T19:20:29.943Z,100386.20
2019-03-09T19:22:59.487Z,100379.52
2019-03-09T19:25:29.981Z,100403.40
2019-03-09T19:27:59.528Z,100410.67
2019-03-09T19:30:29.070Z,100413.05
2019-03-09T19:33:00.706Z,100420.77
2019-03-09T19:35:29.857Z,100418.59
2019-03-09T19:37:59.398Z,100431.27
2019-03-09T19:40:28.913Z,100425.14
2019-03-09T19:42:58.427Z,100434.45
2019-03-09T19:45:28.017Z,100438.87
2019-03-09T19:47:57.539Z,100434.20
2019-03-09T19:50:27.091Z,100438.50
2019-03-09T19:52:58.947Z,100441.39
2019-03-09T19:55:27.989Z,100455.64
2019-03-09T19:57:57.506Z,100457.63
2019-03-09T20:00:27.048Z,100458.54
2019-03-09T20:02:56.588Z,100469.84
2019-03-09T20:05:26.117Z,100474.16
2019-03-09T20:07:55.636Z,100474.59
2019-03-09T20:10:25.163Z,100478.98
2019-03-09T20:12:54.881Z,100478.13
2019-03-09T20:15:24.475Z,100475.70
2019-03-09T20:17:54.006Z,100478.85
2019-03-09T20:20:23.530Z,100489.59
2019-03-09T20:22:53.133Z,100491.05
2019-03-09T20:25:22.676Z,100486.79
2019-03-09T20:27:52.181Z,100484.13
2019-03-09T20:30:21.806Z,100496.19
2019-03-09T20:32:51.315Z,100489.05
2019-03-09T20:35:20.841Z,100480.79
2019-03-09T20:37:50.385Z,100485.85
2019-03-09T20:40:19.909Z,100484.72
2019-03-09T20:42:49.434Z,100495.72
2019-03-09T20:45:18.980Z,100487.52
2019-03-09T20:47:48.490Z,100489.11
2019-03-09T20:50:18.123Z,100498.61
2019-03-09T20:52:47.655Z,100510.88
2019-03-09T20:55:17.206Z,100503.35
2019-03-09T20:57:46.770Z,100520.09
2019-03-09T21:00:16.750Z,100517.95
2019-03-09T21:02:46.281Z,100525.81
2019-03-09T21:05:16.282Z,100523.62
2019-03-09T21:07:45.945Z,100484.48
2019-03-09T21:10:16.000Z,100530.52
2019-03-09T21:13:10.922Z,100531.64
2019-03-09T21:15:40.467Z,100534.31
2019-03-09T21:18:10.035Z,100523.62
2019-03-09T21:20:39.571Z,100528.85
2019-03-09T21:23:09.111Z,100524.77
2019-03-09T21:25:38.670Z,100530.64
2019-03-09T21:28:08.216Z,100528.23
2019-03-09T21:30:38.592Z,100521.57
2019-03-09T21:33:08.128Z,100536.38
2019-03-09T21:35:37.677Z,100544.83
2019-03-09T21:38:07.224Z,100547.54
2019-03-09T21:40:36.774Z,100548.08
2019-03-09T21:43:06.303Z,100547.02
2019-03-09T21:45:35.821Z,100549.81
2019-03-09T21:48:05.348Z,100537.31
2019-03-09T21:50:34.911Z,100542.44
2019-03-09T21:53:04.485Z,100534.77
2019-03-09T21:55:34.023Z,100549.73
2019-03-09T21:58:03.551Z,100555.16
2019-03-09T22:00:33.077Z,100552.94
2019-03-09T22:03:02.604Z,100547.74
2019-03-09T22:05:32.141Z,100553.45
2019-03-09T22:08:01.672Z,100559.37
2019-03-09T22:10:31.205Z,100559.23
2019-03-09T22:13:00.749Z,100552.94
2019-03-09T22:15:30.271Z,100550.81
2019-03-09T22:17:59.804Z,100560.77
2019-03-09T22:20:29.345Z,100561.29
2019-03-09T22:22:59.844Z,100564.98
2019-03-09T22:25:29.374Z,100566.91
2019-03-09T22:27:58.893Z,100567.77
2019-03-09T22:30:28.422Z,100559.37
2019-03-09T22:32:57.929Z,100558.70
2019-03-09T22:35:27.453Z,100561.02
2019-03-09T22:37:56.981Z,100555.03
2019-03-09T22:40:26.517Z,100567.09
2019-03-09T22:42:56.049Z,100569.59
2019-03-09T22:45:25.634Z,100565.92
2019-03-09T22:47:55.170Z,100568.84
2019-03-09T22:50:24.793Z,100562.50
2019-03-09T22:52:55.359Z,100548.81
2019-03-09T22:55:24.913Z,100545.22
2019-03-09T22:57:54.453Z,100543.81
2019-03-09T23:00:24.267Z,100540.52
2019-03-09T23:02:55.410Z,100531.77
2019-03-09T23:05:25.021Z,100542.22
2019-03-09T23:07:54.548Z,100536.59
2019-03-09T23:10:24.177Z,100549.54
2019-03-09T23:12:53.789Z,100544.92
2019-03-09T23:15:23.326Z,100541.92
2019-03-09T23:17:52.867Z,100539.73
2019-03-09T23:20:22.390Z,100539.80
2019-03-09T23:22:52.765Z,100539.73
2019-03-09T23:25:22.286Z,100543.81
2019-03-09T23:27:51.798Z,100539.58
2019-03-09T23:30:21.420Z,100537.61
2019-03-09T23:32:50.928Z,100541.69
2019-03-09T23:35:21.141Z,100548.44
2019-03-09T23:37:50.733Z,100549.90
2019-03-09T23:40:20.368Z,100545.17
2019-03-09T23:42:49.896Z,100550.30
2019-03-09T23:45:20.024Z,100549.84
2019-03-09T23:47:49.584Z,100550.13
2019-03-09T23:50:19.195Z,100549.77
2019-03-09T23:52:48.861Z,100549.31
2019-03-09T23:55:22.461Z,100540.15
2019-03-09T23:57:50.094Z,100535.83
